Time;durP1;ratioP1;P1;durP2;ratioP2;P2;SDS_P1;SDS_P2;PMS_P1;PMS_P2;Temp;Humidity;BMP_temperature;BMP_pressure;BME280_temperature;BME280_humidity;BME280_pressure;Samples;Min_cycle;Max_cycle;Signal;HPM_P1;HPM_P2
2022/10/09 00:00:06;;;;;;;8.07;4.45;;;;;;;8.07;82.87;102482.13;5062797;28;20036;-79
2022/10/09 00:02:31;;;;;;;9.00;3.85;;;;;;;8.04;82.59;102479.69;5062672;28;20025;-79
2022/10/09 00:04:59;;;;;;;9.35;4.53;;;;;;;7.86;82.58;102476.19;5047160;28;20097;-79
2022/10/09 00:07:24;;;;;;;9.27;5.40;;;;;;;7.87;83.14;102478.69;5047438;28;20066;-79
2022/10/09 00:09:50;;;;;;;8.60;4.60;;;;;;;7.80;83.89;102487.63;5045259;28;20314;-79
2022/10/09 00:12:15;;;;;;;9.02;5.47;;;;;;;7.77;84.52;102492.91;5044901;28;20090;-79
2022/10/09 00:14:40;;;;;;;8.77;5.00;;;;;;;7.72;84.77;102490.50;5063883;28;20079;-79
2022/10/09 00:17:06;;;;;;;12.95;4.85;;;;;;;7.72;84.29;102489.69;5048844;28;20205;-79
2022/10/09 00:19:31;;;;;;;7.70;3.92;;;;;;;7.73;84.63;102486.19;5050999;28;20499;-78
2022/10/09 00:21:56;;;;;;;8.27;4.90;;;;;;;7.68;85.01;102489.00;5050548;28;20112;-80
2022/10/09 00:24:24;;;;;;;10.27;4.53;;;;;;;7.70;84.28;102470.84;5069259;28;20462;-79
2022/10/09 00:26:50;;;;;;;10.90;4.45;;;;;;;7.72;84.80;102475.03;5048126;28;20347;-79
2022/10/09 00:29:15;;;;;;;10.05;4.72;;;;;;;7.81;84.59;102489.28;5049909;28;20047;-79
2022/10/09 00:31:40;;;;;;;11.30;5.70;;;;;;;7.79;84.48;102475.59;5069161;28;20158;-79
2022/10/09 00:34:06;;;;;;;8.73;4.68;;;;;;;7.76;84.24;102469.75;5043541;28;20028;-79
2022/10/09 00:36:31;;;;;;;8.48;4.78;;;;;;;7.80;84.54;102486.75;5050284;28;20115;-79
2022/10/09 00:38:56;;;;;;;8.60;4.53;;;;;;;7.79;83.86;102485.91;5045566;28;20135;-79
2022/10/09 00:41:27;;;;;;;9.02;4.10;;;;;;;7.76;84.29;102480.91;5046465;28;20028;-79
2022/10/09 00:43:56;;;;;;;13.23;4.47;;;;;;;7.67;84.05;102471.78;5047162;28;20036;-79
2022/10/09 00:46:43;;;;;;;11.13;4.90;;;;;;;7.73;83.40;102486.19;5046728;28;20025;-79
2022/10/09 00:49:25;;;;;;;9.50;4.65;;;;;;;7.71;83.76;102493.16;5048209;28;20040;-79
2022/10/09 00:51:54;;;;;;;8.55;3.78;;;;;;;7.69;84.20;102492.41;5047507;28;20056;-80
2022/10/09 00:54:24;;;;;;;;;;;;;;;7.76;82.92;102491.22;5047858;28;20032;-79
2022/10/09 00:56:53;;;;;;;8.02;3.55;;;;;;;7.54;83.49;102474.97;5046876;28;19956;-80
2022/10/09 00:59:19;;;;;;;7.65;3.70;;;;;;;7.41;83.57;102475.50;5046652;28;20469;-79
2022/10/09 01:01:48;;;;;;;6.38;3.55;;;;;;;7.38;83.42;102480.78;5046690;28;20037;-79
2022/10/09 01:04:13;;;;;;;;;;;;;;;7.47;83.26;102489.06;5048262;28;20032;-80
2022/10/09 01:06:54;;;;;;;10.40;3.80;;;;;;;7.36;82.92;102487.75;5046716;28;19923;-79
2022/10/09 01:09:35;;;;;;;9.63;4.30;;;;;;;7.23;83.92;102465.94;5041981;28;20508;-79
2022/10/09 01:12:34;;;;;;;6.65;3.33;;;;;;;7.31;83.75;102476.78;5040478;28;20024;-79
2022/10/09 01:15:11;;;;;;;9.88;4.18;;;;;;;7.33;84.02;102482.69;5042356;28;20248;-80
2022/10/09 01:17:57;;;;;;;7.60;4.40;;;;;;;7.34;84.07;102479.25;5045330;28;20036;-79
2022/10/09 01:20:40;;;;;;;8.07;4.00;;;;;;;7.34;84.99;102474.09;5047820;28;20098;-79
2022/10/09 01:23:46;;;;;;;8.73;4.25;;;;;;;7.34;84.35;102476.66;5041443;28;20025;-79
2022/10/09 01:26:26;;;;;;;10.77;4.03;;;;;;;7.31;83.66;102479.34;5038951;28;20067;-79
2022/10/09 01:28:56;;;;;;;8.25;3.92;;;;;;;7.19;83.71;102474.69;5043251;28;20415;-79
2022/10/09 01:31:29;;;;;;;8.70;4.20;;;;;;;7.13;84.16;102474.94;5046060;28;20487;-79
2022/10/09 01:33:58;;;;;;;8.40;4.20;;;;;;;7.01;84.26;102462.56;5047199;28;20036;-80
2022/10/09 01:36:25;;;;;;;8.13;3.83;;;;;;;6.93;85.02;102453.34;5047725;28;20032;-80
2022/10/09 01:38:52;;;;;;;10.02;4.22;;;;;;;7.06;85.37;102473.53;5047652;28;20048;-81
2022/10/09 01:41:18;;;;;;;7.63;4.30;;;;;;;7.00;85.62;102447.97;5047983;28;20253;-80
2022/10/09 01:43:43;;;;;;;6.57;3.70;;;;;;;7.02;85.42;102443.59;5044631;28;20032;-79
2022/10/09 01:46:22;;;;;;;8.57;4.30;;;;;;;7.12;86.02;102452.63;5048107;28;20532;-79
2022/10/09 01:49:21;;;;;;;11.93;4.15;;;;;;;7.17;84.97;102458.47;5053923;28;20065;-80
2022/10/09 01:52:01;;;;;;;9.43;4.25;;;;;;;7.15;85.97;102462.81;5042455;28;20136;-80
2022/10/09 01:55:00;;;;;;;11.13;3.88;;;;;;;7.08;85.59;102445.91;5064742;28;20215;-79
2022/10/09 01:57:32;;;;;;;8.98;3.75;;;;;;;7.07;85.67;102431.34;5039562;28;20488;-79
2022/10/09 02:00:01;;;;;;;7.15;3.88;;;;;;;7.17;85.41;102440.38;5065952;28;20059;-80
2022/10/09 02:02:27;;;;;;;7.85;4.05;;;;;;;7.14;84.77;102430.19;5047780;28;20440;-78
2022/10/09 02:04:53;;;;;;;7.28;3.58;;;;;;;7.07;84.97;102433.94;5059199;28;20123;-79
2022/10/09 02:07:20;;;;;;;8.32;4.43;;;;;;;7.09;84.96;102427.78;5066831;28;20020;-79
2022/10/09 02:09:45;;;;;;;7.85;3.95;;;;;;;7.15;85.10;102437.00;5049232;28;20480;-79
2022/10/09 02:12:15;;;;;;;7.18;4.00;;;;;;;7.09;85.41;102426.94;5048342;28;20112;-79
2022/10/09 02:14:40;;;;;;;7.00;3.95;;;;;;;7.01;85.20;102423.88;5048605;28;20102;-79
2022/10/09 02:17:16;;;;;;;6.65;3.50;;;;;;;7.04;84.63;102418.56;5048008;28;20485;-79
2022/10/09 02:19:49;;;;;;;13.85;4.53;;;;;;;7.03;85.15;102432.38;5048935;28;20484;-79
2022/10/09 02:22:23;;;;;;;10.20;4.43;;;;;;;6.96;85.85;102431.78;5060513;28;20343;-78
2022/10/09 02:24:50;;;;;;;6.60;3.95;;;;;;;6.86;85.45;102430.47;5060975;28;20047;-81
2022/10/09 02:27:17;;;;;;;8.00;3.42;;;;;;;6.87;85.29;102432.97;5047991;28;20028;-79
2022/10/09 02:29:44;;;;;;;7.97;3.80;;;;;;;6.80;84.94;102418.66;5066712;28;20098;-79
2022/10/09 02:32:10;;;;;;;6.57;4.10;;;;;;;6.88;85.53;102424.38;5065946;28;20028;-79
2022/10/09 02:34:36;;;;;;;7.00;3.88;;;;;;;6.86;85.07;102426.16;5065545;28;20027;-79
2022/10/09 02:37:02;;;;;;;6.82;3.80;;;;;;;6.90;84.94;102427.72;5046258;28;20048;-78
2022/10/09 02:39:27;;;;;;;9.25;4.20;;;;;;;6.75;85.51;102402.53;5047350;28;20146;-79
2022/10/09 02:41:53;;;;;;;7.13;3.92;;;;;;;6.85;85.74;102419.31;5035237;28;20416;-79
2022/10/09 02:44:18;;;;;;;8.80;4.45;;;;;;;6.75;85.57;102405.09;5065715;28;20107;-78
2022/10/09 02:46:44;;;;;;;8.13;4.22;;;;;;;6.83;85.22;102415.13;5064198;28;20028;-79
2022/10/09 02:49:10;;;;;;;7.13;3.58;;;;;;;6.82;84.68;102409.09;5066487;28;20368;-78
2022/10/09 02:51:35;;;;;;;5.40;3.40;;;;;;;6.80;85.05;102410.09;5047718;28;20051;-81
2022/10/09 02:54:01;;;;;;;6.45;3.78;;;;;;;6.76;85.58;102404.19;5062422;28;20036;-79
2022/10/09 02:56:27;;;;;;;7.10;3.45;;;;;;;6.76;85.30;102403.38;5056484;28;20024;-78
2022/10/09 02:58:53;;;;;;;6.68;3.72;;;;;;;6.75;84.90;102412.84;5052098;28;20039;-79
2022/10/09 03:01:19;;;;;;;6.90;3.92;;;;;;;6.74;84.82;102411.16;5061182;28;20046;-78
2022/10/09 03:03:45;;;;;;;8.25;4.00;;;;;;;6.67;85.17;102408.91;5047809;28;20486;-79
2022/10/09 03:06:15;;;;;;;12.25;3.97;;;;;;;6.56;85.43;102396.44;5066125;28;20069;-79
2022/10/09 03:08:48;;;;;;;7.70;4.00;;;;;;;6.58;85.02;102404.94;5062836;28;20028;-79
2022/10/09 03:11:21;;;;;;;8.73;4.32;;;;;;;6.64;85.01;102409.84;5065097;28;20039;-80
2022/10/09 03:13:47;;;;;;;7.15;3.80;;;;;;;6.60;85.25;102398.00;5062700;28;20107;-79
2022/10/09 03:16:19;;;;;;;7.88;4.82;;;;;;;6.56;85.53;102399.00;5047337;28;20424;-79
2022/10/09 03:18:45;;;;;;;9.82;4.45;;;;;;;6.53;85.38;102391.38;5048102;28;20460;-80
2022/10/09 03:21:13;;;;;;;7.38;4.03;;;;;;;6.56;86.05;102399.00;5064663;28;20028;-80
2022/10/09 03:23:39;;;;;;;8.65;4.00;;;;;;;6.51;85.06;102388.03;5063117;28;20052;-79
2022/10/09 03:26:10;;;;;;;8.88;4.22;;;;;;;6.56;85.25;102401.59;5065311;28;20098;-79
2022/10/09 03:28:37;;;;;;;6.82;3.90;;;;;;;6.56;85.17;102401.59;5058468;28;20036;-79
2022/10/09 03:31:03;;;;;;;11.00;4.03;;;;;;;6.54;84.73;102395.66;5064427;28;20051;-79
2022/10/09 03:33:32;;;;;;;8.10;3.80;;;;;;;6.52;84.77;102394.88;5060037;28;20024;-79
2022/10/09 03:35:58;;;;;;;;;;;;;;;6.62;84.63;102406.50;5060425;28;20047;-79
2022/10/09 03:38:25;;;;;;;8.15;4.47;;;;;;;6.51;85.31;102398.34;5040906;28;19920;-79
2022/10/09 03:40:51;;;;;;;9.75;4.35;;;;;;;6.51;85.02;102403.50;5047161;28;20036;-79
2022/10/09 03:43:17;;;;;;;7.93;4.07;;;;;;;6.41;85.71;102387.56;5062133;28;20036;-80
2022/10/09 03:45:42;;;;;;;11.75;5.35;;;;;;;6.45;85.41;102404.59;5040759;28;20308;-78
2022/10/09 03:48:12;;;;;;;9.65;4.50;;;;;;;6.48;84.87;102401.03;5047423;28;20021;-79
2022/10/09 03:50:38;;;;;;;8.68;5.20;;;;;;;6.43;85.88;102410.72;5036543;28;20252;-78
2022/10/09 03:53:05;;;;;;;6.47;4.07;;;;;;;6.37;85.46;102397.16;5065426;28;20025;-79
2022/10/09 03:55:30;;;;;;;8.10;4.97;;;;;;;6.35;85.82;102404.09;5041470;28;20048;-81
2022/10/09 03:57:56;;;;;;;11.23;5.45;;;;;;;6.42;85.26;102414.16;5057451;28;20105;-79
2022/10/09 04:00:21;;;;;;;11.02;5.20;;;;;;;6.41;85.06;102417.66;5047402;28;20025;-78
2022/10/09 04:02:47;;;;;;;9.93;4.70;;;;;;;6.32;85.45;102404.22;5065359;28;20486;-81
2022/10/09 04:05:12;;;;;;;12.00;5.03;;;;;;;6.28;85.81;102402.66;5064218;28;20032;-78
2022/10/09 04:07:43;;;;;;;10.45;4.90;;;;;;;6.31;85.62;102407.72;5065659;28;20468;-78
2022/10/09 04:10:08;;;;;;;11.70;5.05;;;;;;;6.22;85.65;102396.91;5064742;28;20319;-81
2022/10/09 04:12:34;;;;;;;8.23;4.30;;;;;;;6.31;85.93;102407.72;5046799;28;20095;-79
2022/10/09 04:14:59;;;;;;;10.75;4.60;;;;;;;6.28;85.76;102410.38;5063847;28;20032;-78
2022/10/09 04:17:25;;;;;;;10.48;4.68;;;;;;;6.26;85.11;102414.78;5064379;28;20127;-79
2022/10/09 04:19:52;;;;;;;7.75;4.78;;;;;;;6.23;85.60;102408.88;5045994;28;20033;-79
2022/10/09 04:22:18;;;;;;;6.95;4.47;;;;;;;6.19;85.34;102418.47;5045935;28;20035;-79
2022/10/09 04:24:43;;;;;;;10.60;4.40;;;;;;;6.03;85.62;102412.22;5046802;28;20025;-79
2022/10/09 04:27:08;;;;;;;7.57;4.15;;;;;;;6.08;85.20;102420.63;5061765;28;20111;-81
2022/10/09 04:29:34;;;;;;;7.75;4.60;;;;;;;5.97;85.06;102412.44;5062876;28;20029;-79
2022/10/09 04:31:59;;;;;;;8.48;4.90;;;;;;;5.95;85.54;102409.06;5043425;28;20036;-79
2022/10/09 04:34:25;;;;;;;7.50;4.38;;;;;;;5.91;85.79;102407.47;5044157;28;20064;-79
2022/10/09 04:36:53;;;;;;;11.05;5.30;;;;;;;5.92;86.11;102412.63;5046242;28;20357;-79
2022/10/09 04:39:18;;;;;;;12.73;5.57;;;;;;;5.89;86.01;102393.81;5057303;28;20483;-79
2022/10/09 04:41:44;;;;;;;8.32;4.68;;;;;;;5.92;86.27;102398.91;5064833;28;20952;-78
2022/10/09 04:44:12;;;;;;;7.68;4.22;;;;;;;5.86;85.66;102385.31;5058953;28;20520;-79
2022/10/09 04:46:39;;;;;;;8.43;4.57;;;;;;;5.85;85.68;102388.78;5059481;28;20029;-79
2022/10/09 04:49:13;;;;;;;8.40;4.90;;;;;;;5.93;85.92;102391.09;5062908;28;20056;-78
2022/10/09 04:51:38;;;;;;;8.98;4.97;;;;;;;5.82;86.29;102383.75;5046653;28;20070;-78
2022/10/09 04:54:04;;;;;;;8.48;4.80;;;;;;;5.91;86.38;102407.47;5045740;28;20024;-78
2022/10/09 04:56:32;;;;;;;9.82;5.30;;;;;;;5.86;86.36;102390.47;5051590;28;20044;-78
2022/10/09 04:58:57;;;;;;;8.02;4.97;;;;;;;5.84;86.32;102381.94;5064458;28;20032;-78
2022/10/09 05:01:27;;;;;;;6.88;4.68;;;;;;;5.90;86.12;102390.34;5045733;28;20043;-79
2022/10/09 05:03:53;;;;;;;8.40;4.35;;;;;;;5.88;86.45;102381.84;5049072;28;20308;-79
2022/10/09 05:06:25;;;;;;;10.55;5.00;;;;;;;5.80;86.67;102377.00;5066897;28;20036;-79
2022/10/09 05:08:51;;;;;;;10.30;5.55;;;;;;;5.84;87.06;102392.25;5068022;28;20035;-79
2022/10/09 05:11:20;;;;;;;11.65;5.00;;;;;;;5.86;86.87;102389.63;5047980;28;20447;-80
2022/10/09 05:13:52;;;;;;;10.20;4.57;;;;;;;5.89;86.06;102404.13;5047640;28;20037;-79
2022/10/09 05:16:20;;;;;;;12.18;5.13;;;;;;;5.83;86.59;102385.41;5066694;28;20555;-79
2022/10/09 05:18:48;;;;;;;9.45;4.60;;;;;;;5.76;86.20;102378.00;5067751;28;20021;-79
2022/10/09 05:21:16;;;;;;;9.25;4.80;;;;;;;5.73;86.64;102378.91;5063819;28;20025;-78
2022/10/09 05:23:42;;;;;;;11.32;5.05;;;;;;;5.70;86.48;102373.06;5062111;28;20028;-79
2022/10/09 05:26:18;;;;;;;10.45;4.93;;;;;;;5.70;86.88;102373.06;5048372;28;20029;-81
2022/10/09 05:28:44;;;;;;;8.63;4.88;;;;;;;5.67;86.99;102370.59;5063287;28;20040;-79
2022/10/09 05:31:22;;;;;;;7.63;4.45;;;;;;;5.68;87.01;102380.84;5067580;28;20032;-79
2022/10/09 05:33:48;;;;;;;8.32;4.97;;;;;;;5.60;86.18;102367.41;5066858;28;20036;-79
2022/10/09 05:36:14;;;;;;;9.82;5.18;;;;;;;5.50;86.32;102360.91;5066868;28;20028;-78
2022/10/09 05:38:40;;;;;;;9.15;5.25;;;;;;;5.42;87.04;102375.78;5046024;28;20048;-80
2022/10/09 05:41:13;;;;;;;8.32;5.03;;;;;;;5.45;87.12;102383.38;5046083;28;20033;-78
2022/10/09 05:43:42;;;;;;;7.75;4.53;;;;;;;5.44;86.65;102376.56;5047672;28;20037;-78
2022/10/09 05:46:14;;;;;;;9.15;5.10;;;;;;;5.42;86.65;102373.22;5048060;28;20029;-79
2022/10/09 05:48:43;;;;;;;8.40;4.82;;;;;;;5.28;86.87;102366.81;5046009;28;20037;-78
2022/10/09 05:51:17;;;;;;;9.13;5.45;;;;;;;5.25;86.82;102361.75;5045354;28;20075;-79
2022/10/09 05:53:44;;;;;;;8.68;4.60;;;;;;;5.29;86.62;102368.50;5043457;28;20041;-78
2022/10/09 05:56:24;;;;;;;9.73;5.07;;;;;;;5.27;86.77;102380.53;5047205;28;20111;-79
2022/10/09 05:58:55;;;;;;;9.70;4.72;;;;;;;5.24;87.24;102375.53;5044520;28;20405;-79
2022/10/09 06:01:22;;;;;;;11.35;5.30;;;;;;;5.23;87.02;102379.00;5046579;28;20025;-80
2022/10/09 06:03:49;;;;;;;10.05;5.30;;;;;;;5.20;87.10;102371.38;5035748;28;20033;-79
2022/10/09 06:06:18;;;;;;;8.80;4.78;;;;;;;5.17;87.14;102376.63;5044799;28;20154;-78
2022/10/09 06:08:47;;;;;;;8.80;4.57;;;;;;;5.13;86.77;102372.47;5044564;28;20051;-78
2022/10/09 06:11:15;;;;;;;;;;;;;;;5.22;86.75;102387.63;5034643;28;20032;-79
2022/10/09 06:13:42;;;;;;;11.15;4.97;;;;;;;5.11;87.31;102371.69;5035664;28;20261;-78
2022/10/09 06:16:12;;;;;;;8.13;4.40;;;;;;;5.10;87.46;102382.84;5044690;28;20472;-78
2022/10/09 06:18:40;;;;;;;8.45;4.68;;;;;;;5.16;87.68;102387.81;5044675;28;20532;-79
2022/10/09 06:21:06;;;;;;;10.35;4.93;;;;;;;5.20;88.38;102381.66;5042304;28;20510;-79
2022/10/09 06:23:31;;;;;;;9.02;4.82;;;;;;;5.26;88.41;102389.16;5044435;28;20131;-78
2022/10/09 06:25:59;;;;;;;10.10;5.20;;;;;;;5.28;89.09;102377.09;5037085;28;20104;-78
2022/10/09 06:28:27;;;;;;;10.63;5.47;;;;;;;5.36;89.15;102383.72;5043656;28;20047;-81
2022/10/09 06:30:52;;;;;;;13.70;6.28;;;;;;;5.31;89.12;102374.41;5042134;28;20029;-81
2022/10/09 06:33:17;;;;;;;8.15;4.97;;;;;;;5.22;89.36;102361.88;5042639;28;20040;-78
2022/10/09 06:35:43;;;;;;;10.80;5.80;;;;;;;5.44;89.29;102386.84;5042471;28;20021;-78
2022/10/09 06:38:14;;;;;;;11.23;5.70;;;;;;;5.41;88.75;102376.69;5055085;28;20540;-81
2022/10/09 06:40:39;;;;;;;11.88;6.28;;;;;;;5.49;88.91;102396.09;5061943;28;20067;-79
2022/10/09 06:43:06;;;;;;;10.07;5.47;;;;;;;5.53;88.76;102391.69;5041512;28;20484;-78
2022/10/09 06:45:36;;;;;;;9.55;5.50;;;;;;;5.49;89.19;102384.94;5057878;28;20027;-78
2022/10/09 06:48:04;;;;;;;8.73;5.38;;;;;;;5.58;88.96;102392.34;5062187;28;20119;-81
2022/10/09 06:50:29;;;;;;;7.97;5.43;;;;;;;5.58;88.88;102395.78;5063105;28;20064;-78
2022/10/09 06:52:54;;;;;;;10.02;5.45;;;;;;;5.44;88.93;102368.84;5058169;28;20080;-79
2022/10/09 06:55:20;;;;;;;9.23;5.72;;;;;;;5.57;89.12;102388.13;5055180;28;20028;-78
2022/10/09 06:57:48;;;;;;;12.60;5.82;;;;;;;5.64;87.98;102393.88;5050995;28;20083;-80
2022/10/09 07:00:14;;;;;;;10.68;5.70;;;;;;;5.64;88.77;102392.16;5036011;28;20040;-79
2022/10/09 07:02:41;;;;;;;11.35;4.93;;;;;;;5.62;88.83;102390.50;5036237;28;20025;-79
2022/10/09 07:05:07;;;;;;;9.95;5.53;;;;;;;5.58;88.98;102385.47;5063394;28;20023;-79
2022/10/09 07:07:33;;;;;;;12.23;5.68;;;;;;;5.68;88.67;102398.88;5047339;28;20036;-78
2022/10/09 07:09:58;;;;;;;10.77;6.63;;;;;;;5.68;89.22;102391.16;5061551;28;20028;-79
2022/10/09 07:12:24;;;;;;;10.23;6.50;;;;;;;5.63;89.28;102377.59;5063845;28;20021;-78
2022/10/09 07:14:49;;;;;;;12.95;6.60;;;;;;;5.77;88.93;102395.94;5059692;28;20029;-80
2022/10/09 07:17:14;;;;;;;8.32;6.13;;;;;;;5.76;89.21;102383.97;5060459;28;20455;-78
2022/10/09 07:19:39;;;;;;;10.68;6.80;;;;;;;5.78;89.26;102387.31;5057460;28;20029;-79
2022/10/09 07:22:10;;;;;;;14.43;7.00;;;;;;;5.84;89.76;102392.25;5058921;28;20032;-78
2022/10/09 07:24:35;;;;;;;12.93;6.43;;;;;;;5.88;89.38;102392.16;5045895;28;20055;-78
2022/10/09 07:27:01;;;;;;;12.13;7.32;;;;;;;5.98;89.95;102398.69;5065446;28;20059;-78
2022/10/09 07:29:26;;;;;;;13.02;8.50;;;;;;;6.02;89.83;102401.09;5052052;28;20496;-78
2022/10/09 07:31:51;;;;;;;10.80;7.15;;;;;;;6.05;90.18;102394.97;5062058;28;20035;-79
2022/10/09 07:34:17;;;;;;;13.70;8.05;;;;;;;6.12;90.58;102393.84;5040650;28;20135;-78
2022/10/09 07:36:42;;;;;;;12.95;8.27;;;;;;;6.21;90.75;102397.81;5060164;28;20029;-78
2022/10/09 07:39:08;;;;;;;15.45;9.05;;;;;;;6.27;91.49;102395.00;5054821;28;20071;-79
2022/10/09 07:41:33;;;;;;;13.73;8.80;;;;;;;6.30;91.05;102400.84;5042559;28;20072;-78
2022/10/09 07:43:59;;;;;;;15.55;7.82;;;;;;;6.29;91.33;102377.72;5065215;28;20385;-78
2022/10/09 07:46:26;;;;;;;13.88;8.13;;;;;;;6.42;91.51;102398.69;5064353;28;20055;-78
2022/10/09 07:48:51;;;;;;;14.57;7.05;;;;;;;6.51;91.47;102390.63;5062932;28;20024;-79
2022/10/09 07:51:28;;;;;;;14.27;6.53;;;;;;;6.46;91.58;102370.19;5046756;28;20433;-78
2022/10/09 07:53:58;;;;;;;10.98;6.50;;;;;;;6.59;90.93;102389.41;5038986;28;20085;-78
2022/10/09 07:56:27;;;;;;;11.05;6.78;;;;;;;6.65;92.07;102378.88;5050393;28;20025;-81
2022/10/09 07:58:58;;;;;;;14.23;6.78;;;;;;;6.81;91.41;102391.97;5064402;28;20506;-78
2022/10/09 08:01:26;;;;;;;11.90;6.25;;;;;;;6.74;91.65;102369.91;5057573;28;20036;-78
2022/10/09 08:03:53;;;;;;;11.32;7.38;;;;;;;6.95;92.44;102388.84;5063074;28;20029;-78
2022/10/09 08:06:19;;;;;;;11.75;7.72;;;;;;;7.07;92.54;102395.22;5038162;28;20261;-78
2022/10/09 08:08:49;;;;;;;12.13;6.78;;;;;;;7.16;91.62;102392.25;5042658;28;20112;-78
2022/10/09 08:11:15;;;;;;;10.07;6.72;;;;;;;7.25;92.08;102391.88;5059036;28;20032;-78
2022/10/09 08:13:42;;;;;;;14.52;7.30;;;;;;;7.30;92.43;102379.59;5043679;28;20561;-78
2022/10/09 08:16:08;;;;;;;17.10;7.82;;;;;;;7.44;92.29;102392.75;5054995;28;20437;-78
2022/10/09 08:18:34;;;;;;;13.43;8.13;;;;;;;7.49;91.74;102373.66;5062062;28;20099;-78
2022/10/09 08:21:03;;;;;;;15.43;7.65;;;;;;;7.55;92.58;102370.78;5063178;28;20036;-78
2022/10/09 08:23:28;;;;;;;10.73;6.90;;;;;;;7.70;91.97;102372.69;5058908;28;20258;-79
2022/10/09 08:25:54;;;;;;;14.15;7.57;;;;;;;7.83;92.38;102365.22;5057686;28;20369;-79
2022/10/09 08:28:19;;;;;;;13.60;7.90;;;;;;;7.90;91.75;102370.03;5063713;28;20031;-78
2022/10/09 08:30:45;;;;;;;13.95;8.18;;;;;;;8.02;91.86;102362.63;5059813;28;20108;-79
2022/10/09 08:33:10;;;;;;;16.05;6.93;;;;;;;8.20;91.68;102372.09;5060829;28;20033;-78
2022/10/09 08:35:35;;;;;;;11.85;7.55;;;;;;;8.30;91.75;102368.19;5054808;28;20032;-78
2022/10/09 08:38:01;;;;;;;11.32;6.97;;;;;;;8.40;90.75;102372.06;5044949;28;20075;-79
2022/10/09 08:40:52;;;;;;;12.52;7.82;;;;;;;8.48;90.79;102351.00;5049305;28;20102;-80
2022/10/09 08:43:30;;;;;;;12.38;8.50;;;;;;;8.58;90.92;102344.47;5045659;28;20028;-79
2022/10/09 08:46:03;;;;;;;14.67;7.67;;;;;;;8.77;90.45;102362.50;5040857;28;20098;-78
2022/10/09 08:48:29;;;;;;;13.90;6.53;;;;;;;8.86;89.77;102362.06;5039671;28;20310;-79
2022/10/09 08:50:58;;;;;;;12.00;8.38;;;;;;;8.92;89.30;102348.81;5041793;28;20473;-79
2022/10/09 08:53:43;;;;;;;17.30;8.45;;;;;;;9.04;89.49;102353.38;5045602;28;20029;-80
2022/10/09 08:56:12;;;;;;;12.27;8.45;;;;;;;9.17;89.44;102350.16;5032606;28;20057;-79
2022/10/09 08:58:39;;;;;;;10.80;7.75;;;;;;;9.23;89.37;102344.66;5041811;28;20036;-78
2022/10/09 09:01:32;;;;;;;15.48;9.57;;;;;;;9.41;88.84;102356.66;5042373;28;20550;-79
2022/10/09 09:04:34;;;;;;;14.35;8.15;;;;;;;9.51;88.81;102355.25;5044928;28;20035;-78
2022/10/09 09:07:14;;;;;;;13.60;8.32;;;;;;;9.66;88.77;102342.41;5011240;28;20488;-78
2022/10/09 09:10:05;;;;;;;13.25;8.43;;;;;;;9.79;87.74;102348.59;5046635;28;20033;-78
2022/10/09 09:12:54;;;;;;;15.05;8.90;;;;;;;9.85;87.22;102337.91;5047774;28;20104;-78
2022/10/09 09:15:44;;;;;;;15.70;8.13;;;;;;;10.05;86.71;102340.25;5042426;28;20056;-78
2022/10/09 09:18:22;;;;;;;14.05;8.93;;;;;;;10.14;86.31;102327.69;5033331;28;20477;-78
2022/10/09 09:20:52;;;;;;;15.82;8.93;;;;;;;10.31;86.52;102335.38;5041085;28;20036;-78
2022/10/09 09:23:22;;;;;;;13.90;9.77;;;;;;;10.42;85.95;102327.84;5036095;28;20473;-79
2022/10/09 09:25:47;;;;;;;13.25;9.45;;;;;;;10.48;85.16;102311.09;5039365;28;20028;-78
2022/10/09 09:28:27;;;;;;;13.25;8.20;;;;;;;10.65;84.16;102329.13;5044852;28;20424;-78
2022/10/09 09:31:00;;;;;;;14.45;8.40;;;;;;;10.74;82.67;102318.22;5043940;28;20430;-79
2022/10/09 09:34:17;;;;;;;13.35;8.68;;;;;;;10.85;83.80;102312.41;5039181;28;20032;-78
2022/10/09 09:36:55;;;;;;;12.90;7.70;;;;;;;10.97;82.02;102303.88;4974115;28;20058;-79
2022/10/09 09:39:27;;;;;;;11.20;6.88;;;;;;;11.06;80.76;102286.91;4976830;28;20117;-79
2022/10/09 09:41:59;;;;;;;12.43;7.80;;;;;;;11.27;81.17;102301.19;4979612;28;20117;-78
2022/10/09 09:44:25;;;;;;;12.32;7.82;;;;;;;11.35;79.40;102287.72;4961166;28;20554;-78
2022/10/09 09:46:51;;;;;;;13.40;8.40;;;;;;;11.40;79.19;102285.69;4979910;28;20038;-78
2022/10/09 09:49:19;;;;;;;13.02;7.43;;;;;;;11.43;79.41;102277.72;4972895;28;20077;-79
2022/10/09 09:51:46;;;;;;;12.70;7.60;;;;;;;11.61;77.64;102283.53;4982370;28;20026;-79
2022/10/09 09:54:18;;;;;;;11.27;7.78;;;;;;;11.82;77.23;102284.81;4968286;28;20038;-78
2022/10/09 09:56:45;;;;;;;11.10;7.60;;;;;;;11.79;75.97;102273.72;4965740;28;20042;-79
2022/10/09 09:59:37;;;;;;;12.68;7.15;;;;;;;11.96;77.30;102283.91;4983079;28;20034;-81
2022/10/09 10:02:19;;;;;;;11.05;6.45;;;;;;;12.04;75.63;102276.44;4981856;28;20089;-79
2022/10/09 10:04:52;;;;;;;10.98;7.15;;;;;;;12.19;75.60;102270.25;4975722;28;20470;-79
2022/10/09 10:07:28;;;;;;;11.48;7.43;;;;;;;12.36;75.72;102273.53;5013778;28;20044;-79
2022/10/09 10:10:05;;;;;;;11.80;7.30;;;;;;;12.37;74.04;102267.38;5037736;28;20489;-80
2022/10/09 10:12:31;;;;;;;10.60;6.80;;;;;;;12.47;73.33;102258.03;5037766;28;20043;-79
2022/10/09 10:14:56;;;;;;;10.52;6.70;;;;;;;12.66;73.46;102263.66;5041905;28;20013;-79
2022/10/09 10:17:28;;;;;;;12.57;6.57;;;;;;;12.79;73.88;102270.63;5039153;28;20491;-79
2022/10/09 10:19:54;;;;;;;10.70;6.50;;;;;;;12.82;71.83;102267.84;5038211;28;20044;-79
2022/10/09 10:22:25;;;;;;;9.30;6.13;;;;;;;12.86;71.89;102258.91;5044760;28;20056;-79
2022/10/09 10:24:56;;;;;;;8.77;5.68;;;;;;;12.82;70.42;102257.44;5042669;28;20061;-79
2022/10/09 10:27:24;;;;;;;9.48;5.90;;;;;;;13.02;70.21;102259.50;5035646;28;20032;-79
2022/10/09 10:29:56;;;;;;;10.48;6.65;;;;;;;13.00;69.50;102245.75;5040277;28;20039;-79
2022/10/09 10:32:36;;;;;;;8.93;6.00;;;;;;;13.15;69.61;102255.09;5042558;28;20464;-81
2022/10/09 10:35:17;;;;;;;9.73;5.60;;;;;;;13.24;69.56;102241.44;5044932;28;20111;-79
2022/10/09 10:38:12;;;;;;;11.15;6.00;;;;;;;13.38;68.32;102244.88;5032293;28;20460;-78
2022/10/09 10:40:46;;;;;;;10.70;6.30;;;;;;;13.43;68.05;102237.56;5040473;28;20041;-79
2022/10/09 10:43:25;;;;;;;13.55;6.80;;;;;;;13.53;69.27;102238.56;5029649;28;20029;-80
2022/10/09 10:46:28;;;;;;;13.75;7.00;;;;;;;13.49;70.00;102231.91;5042042;28;20035;-79
2022/10/09 10:48:53;;;;;;;12.35;7.78;;;;;;;13.49;68.18;102211.06;5039419;28;20028;-79
2022/10/09 10:51:52;;;;;;;11.65;6.78;;;;;;;13.64;69.35;102230.81;5041111;28;20033;-82
2022/10/09 10:54:45;;;;;;;10.68;6.63;;;;;;;13.79;68.96;102214.06;5045162;28;20067;-81
2022/10/09 10:57:20;;;;;;;11.98;6.80;;;;;;;13.88;66.93;102211.69;5037999;28;20031;-81
2022/10/09 10:59:51;;;;;;;13.23;7.35;;;;;;;14.00;67.31;102206.44;5042139;28;20029;-81
2022/10/09 11:02:38;;;;;;;12.07;7.35;;;;;;;14.05;68.07;102199.09;5040541;28;20100;-81
2022/10/09 11:05:18;;;;;;;10.60;7.25;;;;;;;14.12;66.35;102196.88;5044312;28;20119;-81
2022/10/09 11:08:05;;;;;;;10.25;6.63;;;;;;;14.07;65.08;102196.38;5046169;28;20035;-81
2022/10/09 11:10:42;;;;;;;12.10;7.17;;;;;;;14.08;66.07;102182.38;5034137;28;20395;-82
2022/10/09 11:13:27;;;;;;;11.52;7.03;;;;;;;14.31;67.23;102183.25;5044043;28;20295;-82
2022/10/09 11:16:32;;;;;;;11.93;7.38;;;;;;;14.34;66.36;102178.66;5034036;28;20155;-82
2022/10/09 11:19:19;;;;;;;12.02;6.72;;;;;;;14.43;64.54;102176.28;5045787;28;20035;-82
2022/10/09 11:21:52;;;;;;;11.52;6.55;;;;;;;14.52;64.63;102162.56;5042513;28;20032;-82
2022/10/09 11:24:46;;;;;;;11.35;6.65;;;;;;;14.64;65.35;102174.66;5038114;28;20028;-82
2022/10/09 11:27:25;;;;;;;11.48;7.70;;;;;;;14.49;64.33;102175.84;5039718;28;20532;-82
2022/10/09 11:29:57;;;;;;;13.77;7.05;;;;;;;14.40;62.54;102160.84;5043845;28;20021;-83
2022/10/09 11:32:37;;;;;;;10.98;7.85;;;;;;;14.55;64.69;102155.28;5040792;28;20021;-82
2022/10/09 11:35:16;;;;;;;9.95;6.95;;;;;;;14.70;63.34;102161.13;5043760;28;20060;-82
2022/10/09 11:37:44;;;;;;;10.60;6.07;;;;;;;14.68;62.10;102139.53;5040700;28;20040;-82
2022/10/09 11:40:21;;;;;;;11.13;6.25;;;;;;;14.84;61.80;102152.19;5042943;28;20871;-82
2022/10/09 11:42:55;;;;;;;9.20;6.40;;;;;;;14.96;62.05;102150.41;5045558;28;20028;-82
2022/10/09 11:45:29;;;;;;;11.55;6.78;;;;;;;14.91;61.50;102145.56;5042284;28;20048;-82